Los Angeles International Airport
KLAX : rendu visible

Aérodrome :











RETROUVEZ-NOUS SUR...

 
LOGIN :

S'inscrire | Disclaimer

   EN    FR    IT 

 









Légende :    VFR   VFR Marginal   IFR   IFR Intensif   IFR Très Intensif
Visi : 
Plafond : 
>= 8 km
>= 3000ft
5 à 8 km
1000 à 3000 ft
1500m à 5 km
500 à 1000 ft
800 à 1500m
200 à 500 ft
< 800m
< 200 ft
Symboles :   Orages  Brouillard  Fortes neiges  Fortes précipitations  Vent > 20 kt






- Altitude de l'aérodrome : 125 ft
- Code IATA : LAX


KLAX - Los Angeles International

DERNIER METAR :
  • 272253Z 25009KT 9SM FEW200 FEW250 18/12 A3016 RMK AO2 SLP212 T01830117

METARs EXPIRÉS :
  • 272153Z 26010KT 10SM FEW018 FEW150 SCT200 18/11 A3017 RMK AO2 SLP217 T01830111
  • 272053Z 27011KT 8SM FEW017 FEW140 SCT180 19/10 A3019 RMK AO2 SLP221 T01940100 58013 VISNO RWY24 $
  • 271953Z 27007KT 7SM FEW014 SCT140 SCT180 19/10 A3020 RMK AO2 SLP225 T01940100 $

TAF KLAX
Valide du 27 à 21h jusqu'au 29 à 00h UTC


272052Z 2721/2824 26010KT P6SM SKC
FM280300 34006KT P6SM SKC
FM280900 04005KT P6SM SKC
FM281600 09006KT P6SM SKC
FM282100 26008KT P6SM SKC



MET'MAP, la Météo Aéronautique d'un coup d'oeil ! - Copyright ORBIFLY Décembre 2007 - Disclaimer

ORBIFLY MET'MAP TEAM :

Programmation & Développement : Alexandra Zaïnal
Sur une idée originale de : Baudouin d'Aumeries
Assistance à la programmation : Marc-Olivier Méhu
Soutien technique & logistique : Manuel Goepfert

Contact : metmap@orbifly.com




SOURCES & CREDITS :

   NOAA       Earth
Advisory